Pearce, AZ (85625)

11:05 AM MST on February 19, 2017 (GMT -0700)
North of Ironwood Rd. | | Change Station

Elev 4365 ft 31.95 °N, 109.88 °W | Updated 35 seconds ago

Partly Cloudy
Partly Cloudy
48.9 °F
Feels Like 49 °F
N
2.0
Wind Variable Wind from SW
Gusts 7.0 mph

Today
High -- | Low -- °F
--% Chance of Precip.
Yesterday
High -- | Low -- °F
Precip. -- in
Pressure 29.92 in
Visibility 10.0 miles
Clouds Scattered Clouds 2800 ft
Mostly Cloudy 6000 ft
Windchill 49 °F
Dew Point 36 °F
Humidity 60%
Rainfall 0.00 in
Snow Depth Not available.
6:57 AM 6:09 PM
Last Quarter, 41% visible
METAR KDUG 191756Z AUTO 19011KT 10SM SCT028 BKN060 11/02 A2998 RMK AO2 SLP130 T01060022 10106 20017 51013
Pressure 29.92 in
Visibility 10.0 miles
Clouds Scattered Clouds 2800 ft
Mostly Cloudy 6000 ft
Windchill 49 °F
Dew Point 36 °F
Humidity 60%
Rainfall 0.00 in
Snow Depth Not available.
6:57 AM 6:09 PM
Last Quarter, 41% visible
METAR KDUG 191756Z AUTO 19011KT 10SM SCT028 BKN060 11/02 A2998 RMK AO2 SLP130 T01060022 10106 20017 51013

Get Your Daily Forecast Email!

Thanks for signing up!

Be on the lookout for a verification email in your inbox.

You'll start receiving the daily forecast at 8 AM.

×

10-Day Weather Forecast

Almanac

Astronomy

Feb. 19, 2017 Rise Set
Actual Time
Civil Twilight
Nautical Twilight
Astronomical Twilight
Moon
Length of Visible Light
Length of Day
Tomorrow will be .
, % of the Moon is Illuminated

Today's Extremes

State Highs State Lows

Community

WunderPhotos

Upload Photos

1,962,540 photos uploaded!

WunderBlog® & News

Nearby

Air Quality

  Air Quality AQ Index Pollutant
Not available.

Snow Depth

Station Depth Elevation

Earthquake Activity

City Distance Mag. Time & Date
Minimum magnitude displayed is 2.5.

Coastal Water Temperatures

Place Temperature

Stations

Nearby Weather Stations

Station Location Temp. Windchill Dew Point Humidity Wind Precip. Elev Updated Type
                   

Watches & Warnings

There are currently no watches in effect.